Terminal Aerodrome Forecast
Issued by NWS Omaha/Valley, NE

Home | Current Version | Previous Version | Graphics & Text | Print | Product List | Glossary On
Versions: 1 2 3 4 5 6 7 8 9 10 11 12 13 14
000
FTUS43 KOAX 280520
TAFOFK
TAF
KOFK 280520Z 2806/2906 27008KT P6SM SCT250
     FM281200 27010KT P6SM FEW250
     FM281400 29015G25KT P6SM SCT090
     FM281700 30020G28KT P6SM SCT040
     FM282300 31013KT P6SM FEW250=

USA.gov is the U.S. government's official web portal to all federal, state and local government web resources and services.